Station: Karlovy Vary, ICAO: LKKV, Synop: Synop: 11414,
Koordinaten: 5012'00''N 01255'00''E, Hoehe: 603m, Entfernung: 33.54km
2018/01/18 13:30
LKKV 181330Z 23015G29KT 170V260 9999 BKN013 BKN033 03/02 Q0990 R29/750395


Station: Hof, ICAO: EDQM, Synop: Synop: 10685,
Koordinaten: 5019'00''N 01153'00''E, Hoehe: 567m, Entfernung: 54.25km
2018/01/18 13:20
EDQM 181320Z 23026G49KT 200V260 9999 FEW014 SCT022 BKN027 05/01 Q0989 RERA


Station: ALTENBURG-NOBITZ, ICAO: EDAC, Synop: ,
Koordinaten: 50 59 N 012 30 E, Hoehe: 195m, Entfernung: 61.29km
2018/01/18 13:20
EDAC 181320Z 23025G36KT 9999 FEW036 BKN048 08/03 Q0987


Station: Bayreuth, ICAO: EDQD, Synop: Synop: 10677,
Koordinaten: 4959'00''N 01138'00''E, Hoehe: 488m, Entfernung: 86.72km
2007/07/01 15:50
EDQD 011550Z 01011KT CAVOK 23/15 Q1012


Station: Grafenwoehr, ICAO: ETIC, Synop: Synop: 10687,
Koordinaten: 4942'00''N 01157'00''E, Hoehe: 415m, Entfernung: 95.05km
2018/01/18 13:44
ETIC 181344Z AUTO 24012G25KT 9999 -RA FEW006 BKN017 OVC022 05/04 A2937 RMK AO2 RAB13 SLP962 FZRANO $


Station: PLZEN LINE, ICAO: LKLN, Synop: ,
Koordinaten: 49 41 N 013 16 E, Hoehe: 362m, Entfernung: 95.49km
2018/01/18 13:50
LKLN 181350Z AUTO 23018G29KT 200V270 9999 BKN023 OVC030 06/02 Q0994


mehr Wetter
WetterInfo - adds.pl 2.6.003 DL3EL © 2004-2017 [158064]